Airfield :
LOGIN :

Register | Disclaimer

   EN    FR    IT 

 










Legend :    VFR   Marginal VFR   IFR   Intensive IFR   Very Intensive IFR
Visi :
Ceiling :
>= 8 km
>= 3000ft
5 to 8 km
1000 to 3000 ft
1500m to 5 km
500 to 1000 ft
800 to 1500m
200 to 500 ft
< 800m
< 200 ft
Symbols :   Thunderstorms  Fog  Heavy snow  Heavy precipitations  Wind > 20 kt
SIGMETs :     Misc.  Thunderstorms  Icing  Turbulence  Mountain Waves  Volcanic Ashes







- Airport Elevation : 200 ft


EBBL - Klein Brogel AB

CURRENT METAR :
  • 151525Z AUTO VRB01KT 9999 OVC017/// 04/02 Q0997 WHT

EXPIRED METARs :
  • 151455Z VRB01KT 9999 BKN015 04/02 Q0997 WHT FCST CANCEL
  • 151425Z VRB02KT 9999 BKN014 BKN024 04/02 Q0996 GRN GRN TEMPO WHT
  • 151422Z VRB02KT 9999 BKN014 BKN024 04/02 Q0996 GRN GRN TEMPO WHT
  • 151355Z 19003KT 9999 SCT015 04/02 Q0996 WHT GRN TEMPO WHT
  • 151350Z 18003KT 9999 SCT015 04/02 Q0996 WHT GRN TEMPO WHT
  • 151325Z 21005KT 9999 BKN014 04/02 Q0996 GRN GRN TEMPO WHT
  • 151255Z 21006KT 9999 BKN013 04/02 Q0996 GRN GRN TEMPO WHT

TAF TAF EBBL
Valid from the 15 at 13:00 until the 15 at 22:00 UTC


151141Z 1513/1522 22010KT 9999 BKN010
TEMPO 1513/1515 BKN015
BECMG 1514/1516 9999 FEW010 SCT020 BKN040
PROB30
TEMPO 1514/1518 6000 -SHRA BKN008
No reported NOTAMs for that airfield.



MET'MAP, your aeronautical weather chart ! - Copyright ORBIFLY December 2007 - Disclaimer

ORBIFLY MET'MAP TEAM :

Programming & Development : Alexandra Zaïnal
Concept & Development : Baudouin d'Aumeries
Co-Development & Prog : Marc-Olivier Méhu
Technical & hardware support : Manuel Goepfert

Contact : metmap@orbifly.com




SOURCES & CREDITS :

   NOAA